createdAt,value
2023-05-14T10:36:59.177Z,40.48
2023-05-14T10:37:59.110Z,39.39
2023-05-14T10:38:59.063Z,41.75
2023-05-14T10:39:59.040Z,42.15
2023-05-14T10:40:59.072Z,40.46
2023-05-14T10:41:59.007Z,43.94
2023-05-14T10:42:59.012Z,40.48
2023-05-14T10:43:59.011Z,41.97
2023-05-14T10:44:59.030Z,40.90
2023-05-14T10:45:58.993Z,41.61
2023-05-14T10:46:59.146Z,43.11
2023-05-14T10:47:59.159Z,42.89
2023-05-14T10:48:58.957Z,39.72
2023-05-14T10:49:58.946Z,41.61
2023-05-14T10:50:58.964Z,41.82
2023-05-14T10:51:58.925Z,42.09
2023-05-14T10:52:58.919Z,41.28
2023-05-14T10:53:58.947Z,40.28
2023-05-14T10:55:01.946Z,39.98
2023-05-14T10:55:58.916Z,39.40
2023-05-14T10:56:58.883Z,40.82
2023-05-14T10:57:58.887Z,41.61
2023-05-14T10:58:58.841Z,41.60
2023-05-14T10:59:58.883Z,40.22
2023-05-14T11:00:58.829Z,40.54
2023-05-14T11:01:58.877Z,41.33
2023-05-14T11:02:58.872Z,41.71
2023-05-14T11:03:58.860Z,41.69
2023-05-14T11:05:09.013Z,41.69
2023-05-14T11:06:10.989Z,38.63
2023-05-14T11:07:07.456Z,40.26
2023-05-14T11:08:14.205Z,42.97
2023-05-14T11:08:59.003Z,42.65
2023-05-14T11:11:37.645Z,43.09
2023-05-14T11:12:37.513Z,44.38
2023-05-14T11:13:37.512Z,44.89
2023-05-14T11:14:37.526Z,43.79
2023-05-14T11:15:37.608Z,43.81
2023-05-14T11:16:37.392Z,47.48
2023-05-14T11:17:37.400Z,43.11
2023-05-14T11:18:37.372Z,41.83
2023-05-14T11:19:37.354Z,44.93
2023-05-14T11:20:37.316Z,44.03
2023-05-14T11:21:37.764Z,43.45
2023-05-14T11:22:37.345Z,44.05
2023-05-14T11:23:37.334Z,43.45
2023-05-14T11:24:37.286Z,44.83
2023-05-14T11:25:37.346Z,45.55
2023-05-14T11:26:37.330Z,43.33
2023-05-14T11:27:37.294Z,44.13
2023-05-14T11:28:50.735Z,44.35
2023-05-14T11:29:37.540Z,44.75
2023-05-14T11:30:37.402Z,45.95
2023-05-14T11:31:37.348Z,47.05
2023-05-14T11:32:37.297Z,46.95
2023-05-14T11:33:37.504Z,42.76
2023-05-14T11:34:37.227Z,43.85
2023-05-14T11:35:37.215Z,43.85
2023-05-14T11:36:37.175Z,45.15
2023-05-14T11:37:37.251Z,46.73
2023-05-14T11:38:37.163Z,47.50
2023-05-14T11:39:37.138Z,45.47
2023-05-14T11:40:37.152Z,45.04
2023-05-14T11:41:37.388Z,43.75
2023-05-14T11:42:37.135Z,44.42
2023-05-14T11:43:37.125Z,42.81
2023-05-14T11:44:37.295Z,43.68
2023-05-14T11:45:37.096Z,40.58
2023-05-14T11:46:37.232Z,39.61
2023-05-14T11:47:37.118Z,42.31
2023-05-14T11:48:37.084Z,41.79
2023-05-14T11:49:37.338Z,40.52
2023-05-14T11:50:37.067Z,41.82
2023-05-14T11:51:37.055Z,41.12
2023-05-14T11:52:37.055Z,41.82
2023-05-14T11:53:37.015Z,39.42
2023-05-14T11:54:37.036Z,40.54
2023-05-14T11:55:36.999Z,42.01
2023-05-14T11:56:37.040Z,41.69
2023-05-14T11:57:36.964Z,41.60
2023-05-14T11:58:36.966Z,41.17
2023-05-14T11:59:36.961Z,39.21
2023-05-14T12:00:36.942Z,40.40
2023-05-14T12:01:36.967Z,39.21
2023-05-14T12:02:37.062Z,41.69
2023-05-14T12:03:37.066Z,38.81
2023-05-14T12:04:36.972Z,39.40
2023-05-14T12:05:45.806Z,41.87
2023-05-14T12:06:37.057Z,39.47
2023-05-14T12:07:36.939Z,39.69
2023-05-14T12:08:36.955Z,39.62
2023-05-14T12:09:47.058Z,41.82
2023-05-14T12:10:37.074Z,41.12
2023-05-14T12:11:36.966Z,41.93
2023-05-14T12:12:36.887Z,41.93
2023-05-14T12:13:36.953Z,41.83
2023-05-14T12:14:36.836Z,43.13
2023-05-14T12:15:36.921Z,41.75
2023-05-14T12:16:38.433Z,41.66
2023-05-14T12:17:36.820Z,42.95
2023-05-14T12:18:36.940Z,42.27
2023-05-14T12:19:36.789Z,43.65
2023-05-14T12:20:46.979Z,43.15
2023-05-14T12:21:36.972Z,42.15
2023-05-14T12:22:45.483Z,41.63
2023-05-14T12:23:45.435Z,42.03
2023-05-14T12:24:45.910Z,41.91
2023-05-14T12:25:45.608Z,41.99
2023-05-14T12:26:36.889Z,42.69
2023-05-14T12:27:36.762Z,42.39
2023-05-14T12:28:38.589Z,40.50
2023-05-14T12:29:36.906Z,41.12
2023-05-14T12:30:36.757Z,41.52
2023-05-14T12:31:36.768Z,41.61
2023-05-14T12:32:36.660Z,40.72
2023-05-14T12:33:36.831Z,39.83
2023-05-14T12:34:37.543Z,40.42
2023-05-14T12:35:36.614Z,41.61
2023-05-14T12:36:36.611Z,43.19
2023-05-14T12:37:36.611Z,41.30
2023-05-14T12:38:36.610Z,40.60
2023-05-14T12:39:36.578Z,42.61
2023-05-14T12:40:36.570Z,41.31
2023-05-14T12:41:36.558Z,40.62
2023-05-14T12:42:36.590Z,42.23
2023-05-14T12:43:36.561Z,41.36
2023-05-14T12:44:36.545Z,43.05
2023-05-14T12:45:36.531Z,43.95
2023-05-14T12:46:36.546Z,44.45
2023-05-14T12:47:36.630Z,43.15
2023-05-14T12:48:36.509Z,43.57
2023-05-14T12:49:36.478Z,41.28
2023-05-14T12:50:36.477Z,41.77
2023-05-14T12:51:36.454Z,43.37
2023-05-14T12:52:39.460Z,43.69
2023-05-14T12:53:36.454Z,43.21
2023-05-14T12:54:36.491Z,46.20
2023-05-14T12:55:36.441Z,45.09
2023-05-14T12:56:36.507Z,41.91
2023-05-14T12:57:36.407Z,41.99
2023-05-14T12:58:36.442Z,43.67
2023-05-14T12:59:36.384Z,43.05
2023-05-14T13:00:36.548Z,42.73
2023-05-14T13:01:36.440Z,41.79
2023-05-14T13:02:42.627Z,41.47
2023-05-14T13:03:37.353Z,40.76
2023-05-14T13:04:36.445Z,40.24
2023-05-14T13:05:36.350Z,40.44
2023-05-14T13:06:36.330Z,40.44
2023-05-14T13:07:36.317Z,41.16
2023-05-14T13:08:36.305Z,40.16
2023-05-14T13:09:36.286Z,41.67
2023-05-14T13:10:36.281Z,42.39
2023-05-14T13:11:36.265Z,41.31
2023-05-14T13:12:36.340Z,41.53
2023-05-14T13:13:36.276Z,43.13
2023-05-14T13:14:36.357Z,41.52
2023-05-14T13:15:36.239Z,41.96
2023-05-14T13:16:36.249Z,43.07
2023-05-14T13:17:36.266Z,44.07
2023-05-14T13:18:36.290Z,43.69
2023-05-14T13:19:36.209Z,43.59
2023-05-14T13:20:36.182Z,42.99
2023-05-14T13:21:36.211Z,45.09
2023-05-14T13:22:36.160Z,45.51
2023-05-14T13:23:36.153Z,45.43
2023-05-14T13:24:36.182Z,44.23
2023-05-14T13:25:36.154Z,42.93
2023-05-14T13:26:36.133Z,45.23
2023-05-14T13:27:36.101Z,47.37
2023-05-14T13:28:36.096Z,47.17
2023-05-14T13:29:36.098Z,46.80
2023-05-14T13:30:36.126Z,47.09
2023-05-14T13:31:36.148Z,46.30
2023-05-14T13:32:36.098Z,46.50
2023-05-14T13:33:36.044Z,46.19
2023-05-14T13:34:36.066Z,47.22
2023-05-14T13:35:36.046Z,47.92
2023-05-14T13:36:36.073Z,45.84
2023-05-14T13:37:36.075Z,47.84
2023-05-14T13:38:36.064Z,46.44
2023-05-14T13:39:35.990Z,46.94
2023-05-14T13:40:36.030Z,46.24
2023-05-14T13:41:35.991Z,47.31
2023-05-14T13:42:35.958Z,46.54
2023-05-14T13:43:35.979Z,47.44
2023-05-14T13:44:36.084Z,49.07
2023-05-14T13:45:35.953Z,50.87
2023-05-14T13:46:36.076Z,47.16
2023-05-14T13:47:35.953Z,47.56
2023-05-14T13:48:35.912Z,46.46
2023-05-14T13:49:35.926Z,46.26
2023-05-14T13:50:35.913Z,48.66
2023-05-14T13:51:35.893Z,48.08
2023-05-14T13:52:35.874Z,47.99
2023-05-14T13:53:35.869Z,50.09
2023-05-14T13:54:35.890Z,49.11
2023-05-14T13:55:35.873Z,50.09
2023-05-14T13:56:35.857Z,47.58
2023-05-14T13:57:35.917Z,50.11
2023-05-14T13:58:35.834Z,49.81
2023-05-14T13:59:35.965Z,50.31
2023-05-14T14:00:35.793Z,50.51
2023-05-14T14:01:35.812Z,50.81
2023-05-14T14:02:35.933Z,52.82
2023-05-14T14:03:35.775Z,53.14
2023-05-14T14:04:35.761Z,53.47
2023-05-14T14:05:35.864Z,54.38
2023-05-14T14:06:35.764Z,51.17
2023-05-14T14:07:35.755Z,50.59
2023-05-14T14:08:35.809Z,51.69
2023-05-14T14:09:35.726Z,53.90
2023-05-14T14:10:35.695Z,53.09
2023-05-14T14:11:35.688Z,55.30
2023-05-14T14:12:35.710Z,55.58
2023-05-14T14:13:35.697Z,55.47
2023-05-14T14:14:35.672Z,53.80
2023-05-14T14:15:35.676Z,54.90
2023-05-14T14:16:35.763Z,53.80
2023-05-14T14:17:35.687Z,53.20
2023-05-14T14:18:35.662Z,53.59
2023-05-14T14:19:35.615Z,52.69
2023-05-14T14:20:35.605Z,53.50
2023-05-14T14:21:35.627Z,52.89
2023-05-14T14:22:35.616Z,52.92
2023-05-14T14:23:35.585Z,55.33
2023-05-14T14:24:35.573Z,56.54
2023-05-14T14:25:35.563Z,53.32
2023-05-14T14:26:35.561Z,53.82
2023-05-14T14:27:35.576Z,55.33
2023-05-14T14:28:35.541Z,55.76
2023-05-14T14:29:35.546Z,55.18
2023-05-14T14:30:35.512Z,56.59
2023-05-14T14:31:35.554Z,56.69
2023-05-14T14:32:35.586Z,53.57
2023-05-14T14:33:35.481Z,54.88
2023-05-14T14:34:35.484Z,55.08
2023-05-14T14:35:35.461Z,55.58
2023-05-14T14:36:35.469Z,54.98
2023-05-14T14:37:35.432Z,54.78
2023-05-14T14:38:35.443Z,53.45
2023-05-14T14:39:35.426Z,53.25
2023-05-14T14:40:35.458Z,53.85
2023-05-14T14:41:35.436Z,54.75
2023-05-14T14:42:35.404Z,55.66
2023-05-14T14:43:35.382Z,56.66
2023-05-14T14:44:35.372Z,55.55
2023-05-14T14:45:35.384Z,56.99
2023-05-14T14:46:35.457Z,56.86
2023-05-14T14:47:35.375Z,56.46
2023-05-14T14:48:35.357Z,55.48
2023-05-14T14:49:35.332Z,55.55
2023-05-14T14:50:35.422Z,55.46
2023-05-14T14:51:35.439Z,56.74
2023-05-14T14:52:35.327Z,55.43
2023-05-14T14:53:35.301Z,56.06
2023-05-14T14:54:35.281Z,55.73
2023-05-14T14:55:35.688Z,57.34
2023-05-14T14:56:35.270Z,56.93
2023-05-14T14:57:35.264Z,53.92
2023-05-14T14:58:35.276Z,53.82
2023-05-14T14:59:35.236Z,53.22
2023-05-14T15:00:35.360Z,52.72
2023-05-14T15:01:35.381Z,52.09
2023-05-14T15:02:35.316Z,52.67
2023-05-14T15:03:35.407Z,55.38
2023-05-14T15:04:35.226Z,56.45
2023-05-14T15:05:35.209Z,54.32
2023-05-14T15:06:35.178Z,53.92
2023-05-14T15:07:35.173Z,52.89
2023-05-14T15:08:35.171Z,50.79
2023-05-14T15:09:35.194Z,49.76
2023-05-14T15:10:35.150Z,52.64
2023-05-14T15:11:37.291Z,50.74
2023-05-14T15:12:35.139Z,50.84
2023-05-14T15:13:35.158Z,50.24
2023-05-14T15:14:35.141Z,48.54
2023-05-14T15:15:35.126Z,48.52
2023-05-14T15:16:35.092Z,47.60
2023-05-14T15:17:35.164Z,47.57
2023-05-14T15:18:35.235Z,48.17
2023-05-14T15:19:35.059Z,47.17
2023-05-14T15:20:35.059Z,47.15
2023-05-14T15:21:35.043Z,47.45
2023-05-14T15:22:35.023Z,46.83
2023-05-14T15:23:35.038Z,45.73
2023-05-14T15:24:35.022Z,45.40
2023-05-14T15:25:35.001Z,46.01
2023-05-14T15:26:34.986Z,46.20
2023-05-14T15:27:34.975Z,45.48
2023-05-14T15:28:34.987Z,46.11
2023-05-14T15:29:34.965Z,45.40
2023-05-14T15:30:34.963Z,45.01
2023-05-14T15:31:35.004Z,46.48
2023-05-14T15:32:35.021Z,45.36
2023-05-14T15:33:34.977Z,45.14
2023-05-14T15:34:42.593Z,43.23
2023-05-14T15:35:35.100Z,44.32
2023-05-14T15:36:34.922Z,43.79
2023-05-14T15:37:34.907Z,43.27
2023-05-14T15:38:34.885Z,44.18
2023-05-14T15:39:34.908Z,45.90
2023-05-14T15:40:34.937Z,41.55
2023-05-14T15:41:34.855Z,42.97
2023-05-14T15:42:35.025Z,45.40
2023-05-14T15:43:43.518Z,46.15
2023-05-14T15:44:36.727Z,45.77
2023-05-14T15:45:44.323Z,45.50
2023-05-14T15:46:35.515Z,46.12
2023-05-14T15:47:34.898Z,46.31
2023-05-14T15:48:34.937Z,46.44
2023-05-14T15:49:34.795Z,45.86
2023-05-14T15:50:34.804Z,46.56
2023-05-14T15:51:35.220Z,45.86
2023-05-14T15:52:35.251Z,46.56
2023-05-14T15:53:34.745Z,46.38
2023-05-14T15:54:44.795Z,46.98
2023-05-14T15:55:35.150Z,48.01
2023-05-14T15:58:02.876Z,49.46
2023-05-14T15:59:12.869Z,50.63
2023-05-14T16:00:02.996Z,50.34
2023-05-14T16:01:02.965Z,49.63
2023-05-14T16:02:02.664Z,49.23
2023-05-14T16:03:02.712Z,49.84
2023-05-14T16:04:02.870Z,49.23
2023-05-14T16:05:02.520Z,49.46
